Time;durP1;ratioP1;P1;durP2;ratioP2;P2;SDS_P1;SDS_P2;PMS_P1;PMS_P2;Temp;Humidity;BMP_temperature;BMP_pressure;BME280_temperature;BME280_humidity;BME280_pressure;Samples;Min_cycle;Max_cycle;Signal;HPM_P1;HPM_P2
2023/12/29 00:01:14;;;;;;;0.00;0.00;;;9.70;99.90;;;;;;5052841;28;20257;-66
2023/12/29 00:03:39;;;;;;;0.00;0.00;;;9.70;99.90;;;;;;5052897;28;20211;-66
2023/12/29 00:06:06;;;;;;;0.00;0.00;;;9.70;99.90;;;;;;5052644;28;20536;-67
2023/12/29 00:08:31;;;;;;;0.00;0.00;;;9.80;99.90;;;;;;5051749;28;20213;-67
2023/12/29 00:10:57;;;;;;;0.00;0.00;;;9.80;99.90;;;;;;5052710;28;20177;-66
2023/12/29 00:13:23;;;;;;;0.00;0.00;;;9.80;99.90;;;;;;5051400;28;20180;-66
2023/12/29 00:15:52;;;;;;;0.00;0.00;;;9.80;99.90;;;;;;5052665;28;20176;-67
2023/12/29 00:18:18;;;;;;;0.00;0.00;;;9.80;99.90;;;;;;5052681;28;20192;-67
2023/12/29 00:20:44;;;;;;;0.00;0.00;;;9.90;99.90;;;;;;5052449;28;20640;-67
2023/12/29 00:23:09;;;;;;;0.00;0.00;;;9.80;99.90;;;;;;5052439;28;20181;-67
2023/12/29 00:25:38;;;;;;;0.00;0.00;;;9.90;99.90;;;;;;5052365;28;20189;-67
2023/12/29 00:28:04;;;;;;;0.00;0.00;;;9.90;99.90;;;;;;5051949;28;20244;-66
2023/12/29 00:30:30;;;;;;;0.00;0.00;;;9.90;99.90;;;;;;5051090;28;20166;-67
2023/12/29 00:32:56;;;;;;;0.00;0.00;;;9.90;99.90;;;;;;5052325;28;20182;-67
2023/12/29 00:35:22;;;;;;;0.00;0.00;;;9.90;99.90;;;;;;5051053;28;20230;-67
2023/12/29 00:37:47;;;;;;;0.30;0.30;;;9.90;99.90;;;;;;5052105;28;20209;-67
2023/12/29 00:40:13;;;;;;;0.00;0.00;;;9.80;99.90;;;;;;5052019;28;20233;-67
2023/12/29 00:42:39;;;;;;;0.00;0.00;;;9.80;99.90;;;;;;5052140;28;20177;-67
2023/12/29 00:45:05;;;;;;;0.00;0.00;;;9.80;99.90;;;;;;5052081;28;20173;-67
2023/12/29 00:47:31;;;;;;;0.00;0.00;;;9.70;99.90;;;;;;5052009;28;20718;-67
2023/12/29 00:49:56;;;;;;;0.00;0.00;;;9.70;99.90;;;;;;5051953;28;20208;-67
2023/12/29 00:52:22;;;;;;;0.00;0.00;;;9.70;99.90;;;;;;5052050;28;20180;-67
2023/12/29 00:54:47;;;;;;;0.00;0.00;;;9.70;99.90;;;;;;5051871;28;20195;-67
2023/12/29 00:57:13;;;;;;;0.00;0.00;;;9.70;99.90;;;;;;5051767;28;20656;-67
2023/12/29 00:59:39;;;;;;;0.00;0.00;;;9.70;99.90;;;;;;5051769;28;20189;-67
2023/12/29 01:02:05;;;;;;;0.00;0.00;;;9.70;99.90;;;;;;5051645;28;20177;-67
2023/12/29 01:04:31;;;;;;;0.00;0.00;;;9.70;99.90;;;;;;5050629;28;20231;-67
2023/12/29 01:06:56;;;;;;;0.00;0.00;;;9.70;99.90;;;;;;5051666;28;20256;-67
2023/12/29 01:09:22;;;;;;;0.00;0.00;;;9.70;99.90;;;;;;5051421;28;20315;-67
2023/12/29 01:11:47;;;;;;;0.00;0.00;;;9.60;99.90;;;;;;5051575;28;20173;-67
2023/12/29 01:14:13;;;;;;;0.03;0.03;;;9.60;99.90;;;;;;5051779;28;20177;-67
2023/12/29 01:16:39;;;;;;;0.00;0.00;;;9.60;99.90;;;;;;5050384;28;20189;-67
2023/12/29 01:19:05;;;;;;;0.00;0.00;;;9.60;99.90;;;;;;5051385;28;20173;-67
2023/12/29 01:21:33;;;;;;;0.00;0.00;;;9.60;99.90;;;;;;5051657;28;20264;-67
2023/12/29 01:24:00;;;;;;;0.28;0.28;;;9.60;99.90;;;;;;5051466;28;20185;-67
2023/12/29 01:26:26;;;;;;;0.00;0.00;;;9.60;99.90;;;;;;5051306;28;20193;-67
2023/12/29 01:28:52;;;;;;;0.00;0.00;;;9.60;99.90;;;;;;5051122;28;20217;-67
2023/12/29 01:31:17;;;;;;;0.00;0.00;;;9.60;99.90;;;;;;5051617;28;20181;-67
2023/12/29 01:33:43;;;;;;;0.00;0.00;;;9.60;99.90;;;;;;5051126;28;20176;-67
2023/12/29 01:36:08;;;;;;;0.00;0.00;;;9.60;99.90;;;;;;5050211;28;20260;-67
2023/12/29 01:38:34;;;;;;;0.00;0.00;;;9.60;99.90;;;;;;5051550;28;20257;-67
2023/12/29 01:40:59;;;;;;;0.00;0.00;;;9.60;99.90;;;;;;5049997;28;20217;-67
2023/12/29 01:43:25;;;;;;;0.10;0.10;;;9.60;99.90;;;;;;5051450;28;20184;-68
2023/12/29 01:45:50;;;;;;;0.00;0.00;;;9.60;99.90;;;;;;5051212;28;20216;-68
2023/12/29 01:48:16;;;;;;;0.00;0.00;;;9.70;99.90;;;;;;5051281;28;20270;-67
2023/12/29 01:50:43;;;;;;;0.00;0.00;;;9.60;99.90;;;;;;5051445;28;20174;-67
2023/12/29 01:53:09;;;;;;;0.00;0.00;;;9.60;99.90;;;;;;5050168;28;20177;-67
2023/12/29 01:55:34;;;;;;;0.00;0.00;;;9.60;99.90;;;;;;5050666;28;20567;-67
2023/12/29 01:58:01;;;;;;;0.00;0.00;;;9.60;99.90;;;;;;5050262;28;20241;-67
2023/12/29 02:00:27;;;;;;;0.00;0.00;;;9.60;99.90;;;;;;5050631;28;20173;-67
2023/12/29 02:02:53;;;;;;;0.00;0.00;;;9.60;99.90;;;;;;5051120;28;20576;-67
2023/12/29 02:05:21;;;;;;;0.00;0.00;;;9.60;99.90;;;;;;5051253;28;20181;-67
2023/12/29 02:07:48;;;;;;;0.20;0.10;;;9.60;99.90;;;;;;5050934;28;20339;-67
2023/12/29 02:10:15;;;;;;;0.00;0.00;;;9.60;99.90;;;;;;5051163;28;20179;-67
2023/12/29 02:12:41;;;;;;;0.00;0.00;;;9.60;99.90;;;;;;5050990;28;20204;-67
2023/12/29 02:15:08;;;;;;;0.00;0.00;;;9.60;99.90;;;;;;5049761;28;20217;-67
2023/12/29 02:17:44;;;;;;;0.00;0.00;;;9.60;99.90;;;;;;5049654;28;20178;-66
2023/12/29 02:20:11;;;;;;;0.00;0.00;;;9.60;99.90;;;;;;5051068;28;20181;-66
2023/12/29 02:22:36;;;;;;;0.00;0.00;;;9.60;99.90;;;;;;5050934;28;20178;-66
2023/12/29 02:25:03;;;;;;;0.00;0.00;;;9.60;99.90;;;;;;5050774;28;20196;-66
2023/12/29 02:27:46;;;;;;;0.00;0.00;;;9.60;99.90;;;;;;5050855;28;20174;-67
2023/12/29 02:30:12;;;;;;;0.00;0.00;;;9.60;99.90;;;;;;5051106;28;20177;-67
2023/12/29 02:32:41;;;;;;;0.00;0.00;;;9.60;99.90;;;;;;5053724;28;20173;-66
2023/12/29 02:35:10;;;;;;;0.00;0.00;;;9.60;99.90;;;;;;5054483;28;20170;-66
2023/12/29 02:37:38;;;;;;;0.00;0.00;;;9.60;99.90;;;;;;5053155;28;20177;-66
2023/12/29 02:40:05;;;;;;;0.00;0.00;;;9.60;99.90;;;;;;5052913;28;20213;-66
2023/12/29 02:42:30;;;;;;;0.00;0.00;;;9.60;99.90;;;;;;5054409;28;20268;-67
2023/12/29 02:44:56;;;;;;;0.10;0.10;;;9.60;99.90;;;;;;5054433;28;20213;-66
2023/12/29 02:47:22;;;;;;;0.00;0.00;;;9.60;99.90;;;;;;5054210;28;20189;-67
2023/12/29 02:49:49;;;;;;;0.00;0.00;;;9.50;99.90;;;;;;5052851;28;20209;-66
2023/12/29 02:52:14;;;;;;;0.00;0.00;;;9.60;99.90;;;;;;5054258;28;20501;-66
2023/12/29 02:54:40;;;;;;;0.00;0.00;;;9.60;99.90;;;;;;5054075;28;20212;-67
2023/12/29 02:57:05;;;;;;;0.00;0.00;;;9.60;99.90;;;;;;5053990;28;20177;-67
2023/12/29 02:59:31;;;;;;;0.00;0.00;;;9.60;99.90;;;;;;5053800;28;20664;-67
2023/12/29 03:01:56;;;;;;;0.00;0.00;;;9.60;99.90;;;;;;5053637;28;20181;-67
2023/12/29 03:04:22;;;;;;;0.00;0.00;;;9.60;99.90;;;;;;5054018;28;20182;-67
2023/12/29 03:06:48;;;;;;;0.00;0.00;;;9.60;99.90;;;;;;5052734;28;20173;-67
2023/12/29 03:09:13;;;;;;;0.00;0.00;;;9.70;99.90;;;;;;5053908;28;20205;-67
2023/12/29 03:11:39;;;;;;;0.00;0.00;;;9.70;99.90;;;;;;5053721;28;20650;-67
2023/12/29 03:14:04;;;;;;;0.00;0.00;;;9.70;99.90;;;;;;5052449;28;20174;-67
2023/12/29 03:16:30;;;;;;;0.00;0.00;;;9.70;99.90;;;;;;5053758;28;20665;-67
2023/12/29 03:18:56;;;;;;;0.00;0.00;;;9.70;99.90;;;;;;5053828;28;20517;-67
2023/12/29 03:21:21;;;;;;;0.00;0.00;;;9.70;99.90;;;;;;5053800;28;20169;-67
2023/12/29 03:23:47;;;;;;;0.00;0.00;;;9.70;99.90;;;;;;5053561;28;20184;-66
2023/12/29 03:26:12;;;;;;;0.00;0.00;;;9.70;99.90;;;;;;5053580;28;20641;-67
2023/12/29 03:28:38;;;;;;;0.00;0.00;;;9.70;99.90;;;;;;5052307;28;20228;-67
2023/12/29 03:31:03;;;;;;;0.00;0.00;;;9.80;99.90;;;;;;5053378;28;20177;-67
2023/12/29 03:33:30;;;;;;;0.00;0.00;;;9.80;99.90;;;;;;5053412;28;20184;-67
2023/12/29 03:35:56;;;;;;;0.00;0.00;;;9.80;99.90;;;;;;5053355;28;20208;-67
2023/12/29 03:38:21;;;;;;;0.00;0.00;;;9.80;99.90;;;;;;5053415;28;20201;-67
2023/12/29 03:40:46;;;;;;;0.00;0.00;;;9.80;99.90;;;;;;5051785;28;20710;-67
2023/12/29 03:43:12;;;;;;;0.00;0.00;;;9.80;99.90;;;;;;5052054;28;20181;-67
2023/12/29 03:45:38;;;;;;;0.00;0.00;;;9.80;99.90;;;;;;5053347;28;20172;-66
2023/12/29 03:48:03;;;;;;;0.00;0.00;;;9.80;99.90;;;;;;5051755;28;20220;-67
2023/12/29 03:50:29;;;;;;;0.00;0.00;;;9.80;99.90;;;;;;5053291;28;20204;-67
2023/12/29 03:52:54;;;;;;;0.00;0.00;;;9.80;99.90;;;;;;5051918;28;20637;-67
2023/12/29 03:55:20;;;;;;;0.10;0.10;;;9.80;99.90;;;;;;5053204;28;20668;-67
2023/12/29 03:57:45;;;;;;;0.10;0.10;;;9.80;99.90;;;;;;5053033;28;20169;-67
2023/12/29 04:00:13;;;;;;;0.00;0.00;;;9.80;99.90;;;;;;5051639;28;20177;-67
2023/12/29 04:02:38;;;;;;;0.00;0.00;;;9.80;99.90;;;;;;5053059;28;20268;-67
2023/12/29 04:05:05;;;;;;;0.00;0.00;;;9.80;99.90;;;;;;5051574;28;20655;-67
2023/12/29 04:07:31;;;;;;;0.00;0.00;;;9.80;99.90;;;;;;5052891;28;20256;-67
2023/12/29 04:09:56;;;;;;;0.00;0.00;;;9.80;99.90;;;;;;5052891;28;20253;-67
2023/12/29 04:12:22;;;;;;;0.00;0.00;;;9.80;99.90;;;;;;5052756;28;20645;-67
2023/12/29 04:14:48;;;;;;;0.00;0.00;;;9.90;99.90;;;;;;5052688;28;20174;-67
2023/12/29 04:17:14;;;;;;;0.00;0.00;;;9.90;99.90;;;;;;5052664;28;20184;-67
2023/12/29 04:19:41;;;;;;;0.00;0.00;;;9.90;99.90;;;;;;5052526;28;20173;-67
2023/12/29 04:22:07;;;;;;;0.00;0.00;;;9.90;99.90;;;;;;5052409;28;20169;-67
2023/12/29 04:24:33;;;;;;;0.10;0.10;;;9.90;99.90;;;;;;5052596;28;20771;-67
2023/12/29 04:26:58;;;;;;;0.00;0.00;;;9.90;99.90;;;;;;5052375;28;20248;-67
2023/12/29 04:29:24;;;;;;;0.00;0.00;;;9.80;99.90;;;;;;5052233;28;20291;-67
2023/12/29 04:31:50;;;;;;;0.00;0.00;;;9.80;99.90;;;;;;5052334;28;20205;-67
2023/12/29 04:34:15;;;;;;;0.00;0.00;;;9.80;99.90;;;;;;5052353;28;20656;-67
2023/12/29 04:36:41;;;;;;;0.00;0.00;;;9.80;99.90;;;;;;5052308;28;20203;-67
2023/12/29 04:39:08;;;;;;;0.00;0.00;;;9.80;99.90;;;;;;5050762;28;20177;-67
2023/12/29 04:41:34;;;;;;;0.00;0.00;;;9.80;99.90;;;;;;5052329;28;20236;-67
2023/12/29 04:44:00;;;;;;;0.00;0.00;;;9.80;99.90;;;;;;5052213;28;20170;-67
2023/12/29 04:46:26;;;;;;;0.00;0.00;;;9.80;99.90;;;;;;5052180;28;20235;-66
2023/12/29 04:48:51;;;;;;;0.00;0.00;;;9.80;99.90;;;;;;5051830;28;20209;-67
2023/12/29 04:51:17;;;;;;;0.00;0.00;;;9.80;99.90;;;;;;5052099;28;20203;-66
2023/12/29 04:53:42;;;;;;;0.00;0.00;;;9.80;99.90;;;;;;5050391;28;20192;-66
2023/12/29 04:56:08;;;;;;;0.00;0.00;;;9.80;99.90;;;;;;5052124;28;20212;-66
2023/12/29 04:58:34;;;;;;;0.00;0.00;;;9.80;99.90;;;;;;5051910;28;20174;-66
2023/12/29 05:00:59;;;;;;;0.00;0.00;;;9.80;99.90;;;;;;5051217;28;20178;-67
2023/12/29 05:03:25;;;;;;;0.00;0.00;;;9.80;99.90;;;;;;5051889;28;20193;-67
2023/12/29 05:05:50;;;;;;;0.00;0.00;;;9.80;99.90;;;;;;5051653;28;20312;-67
2023/12/29 05:08:16;;;;;;;0.00;0.00;;;9.70;99.90;;;;;;5050434;28;20291;-67
2023/12/29 05:10:41;;;;;;;0.00;0.00;;;9.70;99.90;;;;;;5050838;28;20173;-66
2023/12/29 05:13:07;;;;;;;0.00;0.00;;;9.70;99.90;;;;;;5050320;28;20180;-66
2023/12/29 05:15:32;;;;;;;0.00;0.00;;;9.70;99.90;;;;;;5033676;28;20169;-66
2023/12/29 05:17:58;;;;;;;0.00;0.00;;;9.70;99.90;;;;;;5051753;28;20197;-66
2023/12/29 05:20:23;;;;;;;0.00;0.00;;;9.60;99.90;;;;;;5051725;28;20177;-67
2023/12/29 05:22:49;;;;;;;0.00;0.00;;;9.60;99.90;;;;;;5051493;28;20532;-66
2023/12/29 05:25:14;;;;;;;0.00;0.00;;;9.60;99.90;;;;;;5051440;28;20227;-65
2023/12/29 05:27:40;;;;;;;0.00;0.00;;;9.60;99.90;;;;;;5051423;28;20201;-67
2023/12/29 05:30:06;;;;;;;0.00;0.00;;;9.60;99.90;;;;;;5051473;28;20640;-67
2023/12/29 05:32:31;;;;;;;0.00;0.00;;;9.50;99.90;;;;;;5051035;28;20663;-66
2023/12/29 05:34:57;;;;;;;0.00;0.00;;;9.50;99.90;;;;;;5051144;28;20789;-66
2023/12/29 05:37:22;;;;;;;0.00;0.00;;;9.40;99.90;;;;;;5051221;28;20178;-66
2023/12/29 05:39:48;;;;;;;0.00;0.00;;;9.40;99.90;;;;;;5051080;28;20225;-66
2023/12/29 05:42:13;;;;;;;0.10;0.10;;;9.40;99.90;;;;;;5049844;28;20530;-66
2023/12/29 05:44:39;;;;;;;0.00;0.00;;;9.50;99.90;;;;;;5051292;28;20268;-66
2023/12/29 05:47:05;;;;;;;0.00;0.00;;;9.40;99.90;;;;;;5051212;28;20261;-66
2023/12/29 05:49:31;;;;;;;0.00;0.00;;;9.30;99.90;;;;;;5051077;28;20673;-67
2023/12/29 05:51:57;;;;;;;0.00;0.00;;;9.30;99.90;;;;;;5049961;28;20174;-67
2023/12/29 05:54:23;;;;;;;0.00;0.00;;;9.30;99.90;;;;;;5051094;28;20184;-66
2023/12/29 05:56:49;;;;;;;0.00;0.00;;;9.30;99.90;;;;;;5051044;28;20532;-66
2023/12/29 05:59:14;;;;;;;0.00;0.00;;;9.30;99.90;;;;;;5050953;28;20174;-66
2023/12/29 06:01:40;;;;;;;0.00;0.00;;;9.30;99.90;;;;;;5050740;28;20185;-66
2023/12/29 06:04:05;;;;;;;0.00;0.00;;;9.20;99.90;;;;;;5051861;28;20185;-66
2023/12/29 06:06:31;;;;;;;0.00;0.00;;;9.20;99.90;;;;;;5054651;28;20616;-67
2023/12/29 06:08:56;;;;;;;0.00;0.00;;;9.20;99.90;;;;;;5058232;28;20232;-67
2023/12/29 06:11:22;;;;;;;0.00;0.00;;;9.20;99.90;;;;;;5058220;28;20184;-67
2023/12/29 06:13:47;;;;;;;0.00;0.00;;;9.20;99.90;;;;;;5058321;28;20272;-67
2023/12/29 06:16:20;;;;;;;0.00;0.00;;;9.20;99.90;;;;;;5057695;28;20180;-67
2023/12/29 06:18:46;;;;;;;0.00;0.00;;;9.20;99.90;;;;;;5056796;28;20208;-67
2023/12/29 06:21:12;;;;;;;0.00;0.00;;;9.10;99.90;;;;;;5054762;28;20177;-67
2023/12/29 06:23:38;;;;;;;0.00;0.00;;;9.10;99.90;;;;;;5055269;28;20181;-67
2023/12/29 06:26:03;;;;;;;0.00;0.00;;;9.10;99.90;;;;;;5055587;28;20637;-67
2023/12/29 06:28:29;;;;;;;0.00;0.00;;;9.10;99.90;;;;;;5055992;28;20214;-67
2023/12/29 06:30:54;;;;;;;0.00;0.00;;;9.10;99.90;;;;;;5056760;28;20181;-67
2023/12/29 06:33:21;;;;;;;0.00;0.00;;;9.10;99.90;;;;;;5056025;28;20170;-67
2023/12/29 06:35:47;;;;;;;0.00;0.00;;;9.10;99.90;;;;;;5055811;28;20177;-67
2023/12/29 06:38:13;;;;;;;0.00;0.00;;;9.10;99.90;;;;;;5055849;28;20299;-67
2023/12/29 06:40:38;;;;;;;0.00;0.00;;;9.10;99.90;;;;;;5054619;28;20233;-68
2023/12/29 06:43:04;;;;;;;0.00;0.00;;;9.20;99.90;;;;;;5054167;28;20556;-67
2023/12/29 06:45:30;;;;;;;0.03;0.03;;;9.20;99.90;;;;;;5053091;28;20512;-66
2023/12/29 06:47:55;;;;;;;0.00;0.00;;;9.20;99.90;;;;;;5054185;28;20296;-67
2023/12/29 06:50:21;;;;;;;0.00;0.00;;;9.30;99.90;;;;;;5054428;28;20636;-66
2023/12/29 06:52:46;;;;;;;0.00;0.00;;;9.30;99.90;;;;;;5054227;28;20655;-66
2023/12/29 06:55:12;;;;;;;0.00;0.00;;;9.40;99.90;;;;;;5054136;28;20239;-66
2023/12/29 06:57:38;;;;;;;0.00;0.00;;;9.40;99.90;;;;;;5053016;28;20224;-67
2023/12/29 07:00:04;;;;;;;0.00;0.00;;;9.40;99.90;;;;;;5054140;28;20205;-67
2023/12/29 07:02:30;;;;;;;0.00;0.00;;;9.40;99.90;;;;;;5053926;28;20186;-67
2023/12/29 07:04:56;;;;;;;0.00;0.00;;;9.40;99.90;;;;;;5053893;28;20182;-67
2023/12/29 07:07:21;;;;;;;0.38;0.38;;;9.40;99.90;;;;;;5053898;28;20177;-67
2023/12/29 07:09:47;;;;;;;0.00;0.00;;;9.40;99.90;;;;;;5053846;28;20512;-67
2023/12/29 07:12:12;;;;;;;0.00;0.00;;;9.40;99.90;;;;;;5053708;28;20256;-67
2023/12/29 07:14:40;;;;;;;0.00;0.00;;;9.40;99.90;;;;;;5052487;28;20239;-67
2023/12/29 07:17:05;;;;;;;0.00;0.00;;;9.40;99.90;;;;;;5053550;28;20201;-67
2023/12/29 07:19:36;;;;;;;0.00;0.00;;;9.40;99.90;;;;;;5053891;28;20633;-67
2023/12/29 07:22:03;;;;;;;0.00;0.00;;;9.40;99.90;;;;;;5053821;28;20527;-67
2023/12/29 07:24:29;;;;;;;0.00;0.00;;;9.40;99.90;;;;;;5053895;28;20174;-67
2023/12/29 07:26:54;;;;;;;0.00;0.00;;;9.40;99.90;;;;;;5052265;28;20181;-67
2023/12/29 07:29:20;;;;;;;0.00;0.00;;;9.40;99.90;;;;;;5053834;28;20255;-67
2023/12/29 07:31:45;;;;;;;0.00;0.00;;;9.40;99.90;;;;;;5053699;28;20173;-66
2023/12/29 07:34:11;;;;;;;0.00;0.00;;;9.40;99.90;;;;;;5053545;28;20177;-67
2023/12/29 07:36:40;;;;;;;0.00;0.00;;;9.40;99.90;;;;;;5053544;28;20268;-68
2023/12/29 07:39:06;;;;;;;0.00;0.00;;;9.40;99.90;;;;;;5053504;28;20192;-66
2023/12/29 07:41:31;;;;;;;0.00;0.00;;;9.40;99.90;;;;;;5053369;28;20531;-66
2023/12/29 07:43:57;;;;;;;0.00;0.00;;;9.40;99.90;;;;;;5053445;28;20190;-66
2023/12/29 07:46:26;;;;;;;0.00;0.00;;;9.50;99.90;;;;;;5053485;28;20201;-67
2023/12/29 07:48:52;;;;;;;0.00;0.00;;;9.50;99.90;;;;;;5053057;28;20296;-66
2023/12/29 07:51:18;;;;;;;0.00;0.00;;;9.50;99.90;;;;;;5053366;28;20273;-67
2023/12/29 07:53:44;;;;;;;0.00;0.00;;;9.60;99.90;;;;;;5053147;28;20180;-67
2023/12/29 07:56:10;;;;;;;0.00;0.00;;;9.60;99.90;;;;;;5053223;28;20170;-67
2023/12/29 07:58:36;;;;;;;0.00;0.00;;;9.60;99.90;;;;;;5053261;28;20264;-67
2023/12/29 08:01:01;;;;;;;0.00;0.00;;;9.70;99.90;;;;;;5051756;28;20574;-67
2023/12/29 08:03:27;;;;;;;0.00;0.00;;;9.70;99.90;;;;;;5053109;28;20181;-67
2023/12/29 08:05:52;;;;;;;0.00;0.00;;;9.70;99.90;;;;;;5053232;28;20177;-67
2023/12/29 08:08:18;;;;;;;0.00;0.00;;;9.70;99.90;;;;;;5052990;28;20220;-67
2023/12/29 08:10:43;;;;;;;0.00;0.00;;;9.70;99.90;;;;;;5053137;28;20193;-66
2023/12/29 08:13:09;;;;;;;0.00;0.00;;;9.70;99.90;;;;;;5052881;28;20177;-67
2023/12/29 08:15:35;;;;;;;0.00;0.00;;;9.70;99.90;;;;;;5052896;28;20172;-67
2023/12/29 08:18:01;;;;;;;0.00;0.00;;;9.70;99.90;;;;;;5052674;28;20174;-67
2023/12/29 08:20:26;;;;;;;0.00;0.00;;;9.70;99.90;;;;;;5052745;28;20185;-66
2023/12/29 08:22:52;;;;;;;0.00;0.00;;;9.70;99.90;;;;;;5052431;28;20185;-67
2023/12/29 08:25:17;;;;;;;0.00;0.00;;;9.70;99.90;;;;;;5051269;28;20173;-67
2023/12/29 08:27:43;;;;;;;0.00;0.00;;;9.70;99.90;;;;;;5052421;28;20220;-66
2023/12/29 08:30:09;;;;;;;0.00;0.00;;;9.70;99.90;;;;;;5051884;28;20531;-67
2023/12/29 08:32:34;;;;;;;0.00;0.00;;;9.70;99.90;;;;;;5052532;28;20166;-67
2023/12/29 08:35:00;;;;;;;0.00;0.00;;;9.70;99.90;;;;;;5052392;28;20564;-67
2023/12/29 08:37:25;;;;;;;0.00;0.00;;;9.80;99.90;;;;;;5052397;28;20223;-67
2023/12/29 08:39:51;;;;;;;0.00;0.00;;;9.80;99.90;;;;;;5051993;28;20354;-67
2023/12/29 08:42:16;;;;;;;0.85;0.75;;;9.80;99.90;;;;;;5052380;28;20178;-67
2023/12/29 08:44:42;;;;;;;0.00;0.00;;;9.80;99.90;;;;;;5050981;28;20403;-67
2023/12/29 08:47:08;;;;;;;0.05;0.05;;;9.80;99.90;;;;;;5052200;28;21041;-67
2023/12/29 08:49:37;;;;;;;0.00;0.00;;;9.90;99.90;;;;;;5050747;28;20217;-66
2023/12/29 08:52:04;;;;;;;0.00;0.00;;;10.00;99.90;;;;;;5052066;28;20213;-67
2023/12/29 08:54:30;;;;;;;0.00;0.00;;;10.10;99.90;;;;;;5052136;28;20607;-67
2023/12/29 08:56:55;;;;;;;0.00;0.00;;;10.10;99.90;;;;;;5052044;28;20189;-67
2023/12/29 08:59:21;;;;;;;0.00;0.00;;;10.20;99.90;;;;;;5052079;28;20176;-67
2023/12/29 09:01:46;;;;;;;0.00;0.00;;;10.30;99.90;;;;;;5050765;28;20189;-67
2023/12/29 09:04:12;;;;;;;0.00;0.00;;;10.30;99.90;;;;;;5051940;28;20173;-67
2023/12/29 09:06:38;;;;;;;0.00;0.00;;;10.30;99.90;;;;;;5051960;28;20209;-67
2023/12/29 09:09:04;;;;;;;0.00;0.00;;;10.40;99.90;;;;;;5050513;28;20213;-66
2023/12/29 09:11:29;;;;;;;0.00;0.00;;;10.30;99.90;;;;;;5051903;28;20181;-66
2023/12/29 09:13:55;;;;;;;0.00;0.00;;;10.40;99.90;;;;;;5051752;28;20672;-66
2023/12/29 09:16:20;;;;;;;0.00;0.00;;;10.40;99.90;;;;;;5051796;28;20173;-67
2023/12/29 09:18:46;;;;;;;0.00;0.00;;;10.50;99.90;;;;;;5051791;28;20181;-68
2023/12/29 09:21:12;;;;;;;0.43;0.43;;;10.50;99.90;;;;;;5051508;28;20231;-68
2023/12/29 09:23:38;;;;;;;0.00;0.00;;;10.60;99.90;;;;;;5050515;28;20185;-67
2023/12/29 09:26:05;;;;;;;0.00;0.00;;;10.70;99.90;;;;;;5051366;28;20291;-68
2023/12/29 09:28:32;;;;;;;0.00;0.00;;;10.70;99.90;;;;;;5033701;28;20225;-67
2023/12/29 09:31:00;;;;;;;0.00;0.00;;;10.80;99.90;;;;;;5051556;28;20261;-67
2023/12/29 09:33:26;;;;;;;0.00;0.00;;;10.80;99.90;;;;;;5051584;28;20176;-66
2023/12/29 09:35:51;;;;;;;0.00;0.00;;;10.90;99.90;;;;;;5051426;28;20622;-66
2023/12/29 09:38:18;;;;;;;0.00;0.00;;;10.90;99.90;;;;;;5051473;28;20177;-67
2023/12/29 09:40:45;;;;;;;0.00;0.00;;;11.00;99.90;;;;;;5051426;28;20229;-67
2023/12/29 09:43:11;;;;;;;0.00;0.00;;;11.00;99.90;;;;;;5054412;28;20205;-67
2023/12/29 09:45:40;;;;;;;0.00;0.00;;;11.00;99.90;;;;;;5055628;28;20216;-68
2023/12/29 09:48:13;;;;;;;0.00;0.00;;;11.10;99.90;;;;;;5055412;28;20578;-68
2023/12/29 09:50:39;;;;;;;0.00;0.00;;;11.10;99.90;;;;;;5055463;28;20220;-67
2023/12/29 09:53:06;;;;;;;0.00;0.00;;;11.10;99.90;;;;;;5055447;28;20197;-67
2023/12/29 09:55:32;;;;;;;0.00;0.00;;;11.10;99.90;;;;;;5055397;28;20641;-67
2023/12/29 09:57:59;;;;;;;0.00;0.00;;;11.20;99.90;;;;;;5054096;28;20181;-67
2023/12/29 10:00:25;;;;;;;0.10;0.10;;;11.30;99.90;;;;;;5055345;28;20188;-68
2023/12/29 10:02:54;;;;;;;0.00;0.00;;;11.40;99.90;;;;;;5055210;28;20166;-67
2023/12/29 10:05:20;;;;;;;0.10;0.10;;;11.40;99.90;;;;;;5055329;28;20190;-67
2023/12/29 10:07:48;;;;;;;0.10;0.10;;;11.50;99.90;;;;;;5055112;28;20180;-66
2023/12/29 10:10:17;;;;;;;0.00;0.00;;;11.60;99.90;;;;;;5053966;28;20207;-66
2023/12/29 10:12:47;;;;;;;0.00;0.00;;;11.70;99.90;;;;;;5053715;28;20533;-67
2023/12/29 10:15:19;;;;;;;0.00;0.00;;;11.80;99.90;;;;;;5055066;28;20327;-66
2023/12/29 10:17:56;;;;;;;0.00;0.00;;;11.90;99.90;;;;;;5055041;28;20175;-66
2023/12/29 10:20:45;;;;;;;0.00;0.00;;;12.10;99.90;;;;;;5054994;28;20169;-66
2023/12/29 10:23:16;;;;;;;0.00;0.00;;;12.20;99.90;;;;;;5054769;28;20185;-67
2023/12/29 10:25:42;;;;;;;0.00;0.00;;;12.20;99.90;;;;;;5054889;28;20185;-67
2023/12/29 10:28:10;;;;;;;0.00;0.00;;;12.20;99.90;;;;;;5054811;28;20217;-67
2023/12/29 10:30:37;;;;;;;0.00;0.00;;;12.00;99.90;;;;;;5054860;28;20256;-67
2023/12/29 10:33:04;;;;;;;0.32;0.32;;;12.10;99.90;;;;;;5054630;28;20169;-67
2023/12/29 10:35:30;;;;;;;0.00;0.00;;;12.10;99.90;;;;;;5053267;28;20181;-67
2023/12/29 10:38:09;;;;;;;0.00;0.00;;;12.10;99.90;;;;;;5054646;28;20769;-67
2023/12/29 10:40:35;;;;;;;0.00;0.00;;;12.00;99.90;;;;;;5054502;28;20304;-66
2023/12/29 10:43:06;;;;;;;0.00;0.00;;;12.00;99.90;;;;;;5053132;28;20322;-67
2023/12/29 10:45:32;;;;;;;0.00;0.00;;;12.00;99.90;;;;;;5054397;28;20200;-66
2023/12/29 10:48:00;;;;;;;0.00;0.00;;;12.10;99.90;;;;;;5054459;28;20260;-66
2023/12/29 10:50:27;;;;;;;0.00;0.00;;;12.20;99.90;;;;;;5053207;28;20538;-67
2023/12/29 10:53:10;;;;;;;0.00;0.00;;;12.30;99.90;;;;;;5053616;28;20181;-67
2023/12/29 10:55:35;;;;;;;0.00;0.00;;;12.30;99.90;;;;;;5054395;28;20277;-67
2023/12/29 10:58:01;;;;;;;0.00;0.00;;;12.30;99.90;;;;;;5054340;28;20372;-67
2023/12/29 11:00:30;;;;;;;0.00;0.00;;;12.30;99.90;;;;;;5054308;28;20222;-66
2023/12/29 11:02:56;;;;;;;0.00;0.00;;;12.30;99.90;;;;;;5054149;28;20185;-66
2023/12/29 11:05:25;;;;;;;0.00;0.00;;;12.30;99.90;;;;;;5054115;28;20177;-66
2023/12/29 11:07:53;;;;;;;0.00;0.00;;;12.40;99.90;;;;;;5053846;28;20193;-66
2023/12/29 11:10:20;;;;;;;0.00;0.00;;;12.40;99.90;;;;;;5054142;28;20182;-67
2023/12/29 11:12:47;;;;;;;0.00;0.00;;;12.60;99.90;;;;;;5054051;28;20169;-66
2023/12/29 11:15:14;;;;;;;0.00;0.00;;;12.70;99.90;;;;;;5053995;28;20641;-66
2023/12/29 11:17:49;;;;;;;0.00;0.00;;;12.70;99.90;;;;;;5054038;28;20208;-67
2023/12/29 11:20:16;;;;;;;0.00;0.00;;;12.70;99.90;;;;;;5053966;28;20177;-67
2023/12/29 11:22:42;;;;;;;0.00;0.00;;;12.80;99.90;;;;;;5053841;28;20181;-67
2023/12/29 11:25:09;;;;;;;0.00;0.00;;;12.80;99.90;;;;;;5052495;28;20207;-67
2023/12/29 11:27:35;;;;;;;0.00;0.00;;;12.80;99.90;;;;;;5053616;28;20181;-67
2023/12/29 11:30:02;;;;;;;0.00;0.00;;;12.70;99.90;;;;;;5053566;28;20208;-66
2023/12/29 11:32:45;;;;;;;0.00;0.00;;;12.70;99.90;;;;;;5053459;28;20633;-67
2023/12/29 11:35:23;;;;;;;0.00;0.00;;;12.70;99.90;;;;;;5052409;28;20653;-67
2023/12/29 11:38:08;;;;;;;0.00;0.00;;;12.70;99.90;;;;;;5053481;28;20176;-67
2023/12/29 11:40:44;;;;;;;0.00;0.00;;;12.70;99.90;;;;;;5053212;28;20233;-66
2023/12/29 11:43:14;;;;;;;0.00;0.00;;;12.70;99.90;;;;;;5053231;28;20185;-66
2023/12/29 11:45:40;;;;;;;0.15;0.15;;;12.80;99.90;;;;;;5053453;28;20185;-66
2023/12/29 11:48:06;;;;;;;0.00;0.00;;;12.70;99.90;;;;;;5053152;28;20347;-66
2023/12/29 11:50:38;;;;;;;0.00;0.00;;;12.80;99.90;;;;;;5053186;28;20533;-66
2023/12/29 11:53:04;;;;;;;0.00;0.00;;;12.80;99.90;;;;;;5051864;28;20242;-67
2023/12/29 11:55:32;;;;;;;0.00;0.00;;;12.80;99.90;;;;;;5053148;28;21017;-67
2023/12/29 11:57:58;;;;;;;0.00;0.00;;;12.90;99.90;;;;;;5053155;28;20173;-67
2023/12/29 12:00:44;;;;;;;0.00;0.00;;;12.90;99.90;;;;;;5053103;28;20231;-67
2023/12/29 12:03:17;;;;;;;0.00;0.00;;;13.00;99.90;;;;;;5052885;28;20689;-67
2023/12/29 12:05:49;;;;;;;0.00;0.00;;;13.00;99.90;;;;;;5052142;28;20177;-66
2023/12/29 12:08:32;;;;;;;0.00;0.00;;;13.00;99.90;;;;;;5052981;28;20223;-66
2023/12/29 12:11:19;;;;;;;0.00;0.00;;;12.90;99.90;;;;;;5053036;28;20223;-67
2023/12/29 12:13:47;;;;;;;0.00;0.00;;;12.70;99.90;;;;;;5052668;28;20200;-66
2023/12/29 12:16:44;;;;;;;0.00;0.00;;;12.60;99.90;;;;;;5052671;28;20186;-67
2023/12/29 12:19:11;;;;;;;0.00;0.00;;;12.50;99.90;;;;;;5052663;28;20532;-66
2023/12/29 12:21:37;;;;;;;0.00;0.00;;;12.50;99.90;;;;;;5052740;28;20180;-66
2023/12/29 12:24:04;;;;;;;0.00;0.00;;;12.40;99.90;;;;;;5051233;28;20177;-66
2023/12/29 12:26:31;;;;;;;0.00;0.00;;;12.30;99.90;;;;;;5051340;28;20213;-67
2023/12/29 12:28:57;;;;;;;0.00;0.00;;;12.30;99.90;;;;;;5052356;28;20836;-67
2023/12/29 12:31:23;;;;;;;0.00;0.00;;;12.20;99.90;;;;;;5051198;28;20173;-67
2023/12/29 12:33:55;;;;;;;0.00;0.00;;;12.10;99.90;;;;;;5052377;28;20538;-67
2023/12/29 12:36:21;;;;;;;0.00;0.00;;;12.10;99.90;;;;;;5052482;28;20173;-67
2023/12/29 12:38:54;;;;;;;0.00;0.00;;;12.00;99.90;;;;;;5052262;28;20235;-66
2023/12/29 12:41:24;;;;;;;0.00;0.00;;;12.00;99.90;;;;;;5052355;28;20182;-66
2023/12/29 12:44:11;;;;;;;0.00;0.00;;;12.00;99.90;;;;;;5052306;28;20509;-67
2023/12/29 12:46:42;;;;;;;0.00;0.00;;;12.00;99.90;;;;;;5052250;28;20178;-67
2023/12/29 12:49:08;;;;;;;0.00;0.00;;;12.00;99.90;;;;;;5052213;28;20217;-67
2023/12/29 12:51:34;;;;;;;0.00;0.00;;;12.00;99.90;;;;;;5052359;28;20562;-67